Time;durP1;ratioP1;P1;durP2;ratioP2;P2;SDS_P1;SDS_P2;PMS_P1;PMS_P2;Temp;Humidity;BMP_temperature;BMP_pressure;BME280_temperature;BME280_humidity;BME280_pressure;Samples;Min_cycle;Max_cycle;Signal;HPM_P1;HPM_P2
2024/02/26 00:00:48;;;;;;;3.78;2.40;;;;;;;5.32;100.00;95463.41;5021021;28;20464;-82
2024/02/26 00:03:15;;;;;;;5.00;2.38;;;;;;;5.29;100.00;95463.94;5020877;28;20392;-83
2024/02/26 00:05:42;;;;;;;3.55;2.47;;;;;;;5.29;100.00;95463.13;5021525;28;20401;-84
2024/02/26 00:08:08;;;;;;;2.50;2.30;;;;;;;5.29;100.00;95457.88;5021654;28;20456;-84
2024/02/26 00:10:34;;;;;;;2.80;2.00;;;;;;;5.26;100.00;95451.31;5022266;28;20401;-83
2024/02/26 00:13:00;;;;;;;4.10;2.35;;;;;;;5.25;100.00;95451.63;5022657;28;20433;-85
2024/02/26 00:15:27;;;;;;;3.22;2.30;;;;;;;5.22;100.00;95447.66;5022041;28;20400;-84
2024/02/26 00:17:53;;;;;;;4.60;2.55;;;;;;;5.25;100.00;95441.91;5022362;28;20416;-84
2024/02/26 00:20:21;;;;;;;2.70;2.17;;;;;;;5.27;100.00;95441.63;5022571;28;20408;-84
2024/02/26 00:22:47;;;;;;;6.47;2.80;;;;;;;5.27;100.00;95441.63;5021101;28;20557;-84
2024/02/26 00:25:13;;;;;;;7.00;2.55;;;;;;;5.40;100.00;95441.09;5019901;28;20397;-86
2024/02/26 00:27:41;;;;;;;3.03;2.13;;;;;;;5.40;100.00;95444.50;5020981;28;20486;-84
2024/02/26 00:30:08;;;;;;;3.90;2.50;;;;;;;5.44;100.00;95439.50;5021165;28;20432;-85
2024/02/26 00:32:34;;;;;;;3.90;2.30;;;;;;;5.46;100.00;95442.66;5020468;28;20429;-84
2024/02/26 00:35:00;;;;;;;2.83;2.20;;;;;;;5.43;100.00;95451.84;5021039;28;20747;-86
2024/02/26 00:37:28;;;;;;;4.32;2.75;;;;;;;5.49;100.00;95449.97;5019476;28;20423;-84
2024/02/26 00:39:54;;;;;;;3.50;2.20;;;;;;;5.44;100.00;95442.13;5019154;28;20479;-84
2024/02/26 00:42:20;;;;;;;4.78;2.95;;;;;;;5.37;100.00;95439.00;5018378;28;20484;-84
2024/02/26 00:44:46;;;;;;;2.88;2.17;;;;;;;5.38;100.00;95433.47;5019431;28;21066;-83
2024/02/26 00:47:12;;;;;;;3.50;2.40;;;;;;;5.41;100.00;95437.44;5018844;28;20400;-84
2024/02/26 00:49:39;;;;;;;3.38;2.30;;;;;;;5.34;100.00;95444.75;5019611;28;20413;-84
2024/02/26 00:52:05;;;;;;;3.38;2.10;;;;;;;5.32;100.00;95449.50;5020382;28;20458;-85
2024/02/26 00:54:33;;;;;;;3.60;2.40;;;;;;;5.34;100.00;95440.31;5025605;28;20388;-84
2024/02/26 00:56:59;;;;;;;6.00;2.83;;;;;;;5.40;100.00;95433.22;5025018;28;20445;-82
2024/02/26 00:59:25;;;;;;;3.70;2.30;;;;;;;5.49;100.00;95436.84;5017421;28;20421;-84
2024/02/26 01:01:51;;;;;;;3.70;2.50;;;;;;;5.41;100.00;95443.44;5018036;28;20401;-84
2024/02/26 01:04:17;;;;;;;2.30;1.90;;;;;;;5.50;100.00;95441.06;5017691;28;20400;-85
2024/02/26 01:06:43;;;;;;;4.28;2.30;;;;;;;5.48;100.00;95439.78;5017845;28;20415;-85
2024/02/26 01:09:09;;;;;;;4.18;2.50;;;;;;;5.40;100.00;95438.47;5018378;28;20413;-85
2024/02/26 01:11:37;;;;;;;2.75;2.15;;;;;;;5.44;100.00;95426.38;5018631;28;20397;-85
2024/02/26 01:14:03;;;;;;;3.60;2.30;;;;;;;5.54;100.00;95434.25;5029908;28;20393;-85
2024/02/26 01:16:30;;;;;;;3.63;2.30;;;;;;;5.40;100.00;95427.97;5032166;28;20413;-85
2024/02/26 01:18:56;;;;;;;3.10;2.20;;;;;;;5.34;100.00;95423.78;5020040;28;20409;-84
2024/02/26 01:21:23;;;;;;;3.53;2.10;;;;;;;5.31;100.00;95421.69;5017521;28;20549;-85
2024/02/26 01:23:49;;;;;;;4.80;2.10;;;;;;;5.35;100.00;95417.47;5017493;28;20407;-84
2024/02/26 01:26:15;;;;;;;3.25;2.20;;;;;;;5.34;100.00;95416.69;5017563;28;20404;-84
2024/02/26 01:28:42;;;;;;;2.45;2.03;;;;;;;5.30;100.00;95428.78;5017326;28;20419;-84
2024/02/26 01:31:10;;;;;;;3.72;2.15;;;;;;;5.32;100.00;95431.16;5017910;28;20809;-84
2024/02/26 01:33:36;;;;;;;2.53;2.10;;;;;;;5.31;100.00;95422.47;5017962;28;20405;-85
2024/02/26 01:36:03;;;;;;;3.95;2.20;;;;;;;5.28;100.00;95432.72;5018220;28;20404;-85
2024/02/26 01:38:29;;;;;;;2.40;2.10;;;;;;;5.22;100.00;95439.81;5018220;28;20428;-84
2024/02/26 01:40:55;;;;;;;3.40;2.10;;;;;;;5.19;100.00;95447.44;5019097;28;20401;-84
2024/02/26 01:43:21;;;;;;;2.88;2.13;;;;;;;5.16;100.00;95456.59;5016202;28;20393;-83
2024/02/26 01:45:49;;;;;;;3.15;2.03;;;;;;;5.17;100.00;95460.00;5015575;28;20388;-84
2024/02/26 01:48:15;;;;;;;3.65;2.08;;;;;;;5.17;100.00;95465.25;5016088;28;20440;-83
2024/02/26 01:50:42;;;;;;;3.00;2.00;;;;;;;5.20;100.00;95476.00;5016462;28;20392;-84
2024/02/26 01:53:09;;;;;;;6.13;2.30;;;;;;;5.18;100.00;95477.31;5016334;28;20404;-85
2024/02/26 01:55:35;;;;;;;3.33;2.20;;;;;;;5.12;100.00;95491.47;5016035;28;20471;-83
2024/02/26 01:58:02;;;;;;;3.30;1.92;;;;;;;5.09;100.00;95482.31;5016206;28;20443;-85
2024/02/26 02:00:28;;;;;;;3.60;2.15;;;;;;;5.06;100.00;95478.38;5016340;28;20400;-83
2024/02/26 02:02:56;;;;;;;4.30;2.17;;;;;;;5.06;100.00;95486.22;5016194;28;20412;-81
2024/02/26 02:05:23;;;;;;;2.67;2.00;;;;;;;5.07;100.00;95487.81;4998600;28;20406;-85
2024/02/26 02:07:51;;;;;;;3.47;2.03;;;;;;;5.16;100.00;95477.59;4996390;28;20445;-83
2024/02/26 02:10:22;;;;;;;3.38;2.10;;;;;;;5.12;100.00;95496.72;4996304;28;20823;-84
2024/02/26 02:12:49;;;;;;;2.65;2.20;;;;;;;5.27;100.00;95489.63;4996820;28;20764;-83
2024/02/26 02:15:15;;;;;;;2.65;2.15;;;;;;;5.39;100.00;95484.13;5000013;28;20414;-83
2024/02/26 02:17:41;;;;;;;2.78;2.20;;;;;;;5.35;100.00;95485.69;5000458;28;20402;-84
2024/02/26 02:20:14;;;;;;;3.25;2.03;;;;;;;5.40;100.00;95478.63;4999831;28;20501;-84
2024/02/26 02:22:42;;;;;;;2.42;1.90;;;;;;;5.47;100.00;95475.72;5000475;28;20779;-84
2024/02/26 02:25:08;;;;;;;2.05;1.70;;;;;;;5.64;100.00;95480.69;5000238;28;20402;-85
2024/02/26 02:27:34;;;;;;;2.17;1.63;;;;;;;5.59;100.00;95478.84;5000155;28;20441;-84
2024/02/26 02:30:01;;;;;;;2.03;1.83;;;;;;;5.61;100.00;95486.44;5000516;28;20421;-84
2024/02/26 02:32:29;;;;;;;2.50;1.90;;;;;;;5.71;100.00;95495.06;5000990;28;20401;-83
2024/02/26 02:34:56;;;;;;;2.23;1.60;;;;;;;5.68;100.00;95487.75;5001294;28;20405;-84
2024/02/26 02:37:22;;;;;;;1.70;1.50;;;;;;;5.65;100.00;95475.13;5000651;28;20399;-85
2024/02/26 02:39:49;;;;;;;1.98;1.63;;;;;;;5.63;100.00;95473.84;5000584;28;20533;-84
2024/02/26 02:42:15;;;;;;;1.58;1.48;;;;;;;5.59;100.00;95478.84;5001163;28;20421;-85
2024/02/26 02:44:42;;;;;;;2.22;1.63;;;;;;;5.61;100.00;95475.94;5001095;28;20415;-84
2024/02/26 02:47:08;;;;;;;1.80;1.70;;;;;;;5.56;100.00;95476.75;5000905;28;20434;-85
2024/02/26 02:49:34;;;;;;;2.17;1.80;;;;;;;5.63;100.00;95485.13;5001448;28;20828;-86
2024/02/26 02:52:01;;;;;;;2.50;1.90;;;;;;;5.60;100.00;95485.66;5000821;28;20403;-85
2024/02/26 02:54:27;;;;;;;1.70;1.60;;;;;;;5.56;100.00;95476.75;5003638;28;20395;-85
2024/02/26 02:56:54;;;;;;;1.70;1.60;;;;;;;5.53;100.00;95489.59;5018338;28;20410;-84
2024/02/26 02:59:20;;;;;;;2.80;1.67;;;;;;;5.54;100.00;95494.59;5018831;28;20466;-83
2024/02/26 03:01:46;;;;;;;2.58;1.67;;;;;;;5.53;100.00;95492.22;5002958;28;20422;-82
2024/02/26 03:04:13;;;;;;;1.90;1.70;;;;;;;5.48;100.00;95485.16;5007788;28;20404;-83
2024/02/26 03:06:39;;;;;;;2.10;1.60;;;;;;;5.43;100.00;95483.31;5019128;28;20397;-84
2024/02/26 03:09:05;;;;;;;2.03;1.70;;;;;;;5.43;100.00;95482.53;5020139;28;20527;-85
2024/02/26 03:11:31;;;;;;;1.50;1.40;;;;;;;5.42;100.00;95489.59;5019187;28;20508;-84
2024/02/26 03:13:58;;;;;;;1.52;1.40;;;;;;;5.42;100.00;95480.94;5019571;28;20447;-85
2024/02/26 03:16:25;;;;;;;1.50;1.40;;;;;;;5.49;100.00;95478.84;5019049;28;20428;-85
2024/02/26 03:18:51;;;;;;;2.40;1.50;;;;;;;5.47;100.00;95477.56;5019447;28;20767;-85
2024/02/26 03:21:17;;;;;;;3.95;1.85;;;;;;;5.40;100.00;95493.56;5019006;28;20393;-84
2024/02/26 03:23:43;;;;;;;1.63;1.42;;;;;;;5.37;100.00;95489.63;5018966;28;20397;-85
2024/02/26 03:26:13;;;;;;;2.65;1.50;;;;;;;5.38;100.00;95483.34;5018109;28;20404;-85
2024/02/26 03:28:39;;;;;;;3.10;1.67;;;;;;;5.38;100.00;95485.97;5020756;28;20416;-84
2024/02/26 03:31:07;;;;;;;1.60;1.40;;;;;;;5.44;100.00;95479.66;5019705;28;20940;-84
2024/02/26 03:33:33;;;;;;;1.70;1.45;;;;;;;5.40;100.00;95478.63;5019520;28;20942;-84
2024/02/26 03:35:59;;;;;;;1.67;1.40;;;;;;;5.43;100.00;95475.44;5019690;28;21030;-84
2024/02/26 03:38:26;;;;;;;1.60;1.50;;;;;;;5.40;100.00;95457.63;5019616;28;20992;-85
2024/02/26 03:40:52;;;;;;;2.08;1.58;;;;;;;5.37;100.00;95455.53;5020692;28;20409;-83
2024/02/26 03:43:18;;;;;;;2.90;1.40;;;;;;;5.34;100.00;95450.00;5018022;28;20413;-83
2024/02/26 03:45:44;;;;;;;1.33;1.23;;;;;;;5.31;100.00;95445.31;5018389;28;20480;-84
2024/02/26 03:48:11;;;;;;;1.80;1.33;;;;;;;5.32;100.00;95439.00;5018503;28;20428;-85
2024/02/26 03:50:38;;;;;;;1.70;1.50;;;;;;;5.34;100.00;95444.75;5018608;28;20412;-84
2024/02/26 03:53:04;;;;;;;1.50;1.40;;;;;;;5.29;100.00;95434.28;5019054;28;20404;-85
2024/02/26 03:55:30;;;;;;;1.47;1.37;;;;;;;5.24;100.00;95437.72;5017850;28;20432;-85
2024/02/26 03:57:57;;;;;;;1.50;1.40;;;;;;;5.22;100.00;95450.28;5017680;28;20437;-85
2024/02/26 04:00:23;;;;;;;2.63;1.40;;;;;;;5.22;100.00;95446.88;5018110;28;20404;-84
2024/02/26 04:02:49;;;;;;;1.30;1.20;;;;;;;5.18;100.00;95451.88;5018500;28;20463;-85
2024/02/26 04:05:17;;;;;;;1.30;1.30;;;;;;;5.18;100.00;95448.47;5005354;28;20406;-82
2024/02/26 04:07:43;;;;;;;1.50;1.40;;;;;;;5.19;100.00;95450.81;5006344;28;20409;-84
2024/02/26 04:10:10;;;;;;;1.50;1.40;;;;;;;5.20;100.00;95448.97;4999763;28;20407;-85
2024/02/26 04:12:39;;;;;;;1.92;1.40;;;;;;;5.21;100.00;95443.47;5000719;28;20405;-84
2024/02/26 04:15:06;;;;;;;2.70;1.70;;;;;;;5.21;100.00;95443.47;5000388;28;20409;-83
2024/02/26 04:17:32;;;;;;;2.97;2.15;;;;;;;5.22;100.00;95447.66;5000050;28;20398;-85
2024/02/26 04:19:58;;;;;;;3.03;2.30;;;;;;;5.28;100.00;95430.88;4999769;28;20797;-85
2024/02/26 04:22:26;;;;;;;3.30;2.53;;;;;;;5.28;100.00;95443.19;5000802;28;20816;-85
2024/02/26 04:24:52;;;;;;;3.53;2.67;;;;;;;5.27;100.00;95445.03;5001003;28;20464;-85
2024/02/26 04:27:18;;;;;;;2.80;2.50;;;;;;;5.28;100.00;95443.19;5000657;28;20394;-85
2024/02/26 04:29:44;;;;;;;5.68;3.08;;;;;;;5.26;100.00;95435.59;5001295;28;20468;-85
2024/02/26 04:32:11;;;;;;;5.80;3.08;;;;;;;5.32;100.00;95437.19;5000712;28;20407;-86
2024/02/26 04:34:37;;;;;;;4.68;2.80;;;;;;;5.30;100.00;95451.59;5001155;28;20414;-84
2024/02/26 04:37:03;;;;;;;4.38;2.40;;;;;;;5.31;100.00;95461.84;5000576;28;20494;-84
2024/02/26 04:39:31;;;;;;;2.95;2.55;;;;;;;5.36;100.00;95461.81;5000318;28;20545;-84
2024/02/26 04:41:57;;;;;;;3.90;2.40;;;;;;;5.38;100.00;95459.72;5001535;28;20414;-84
2024/02/26 04:44:23;;;;;;;3.30;2.45;;;;;;;5.38;100.00;95458.94;5001024;28;20417;-85
2024/02/26 04:46:49;;;;;;;3.10;2.33;;;;;;;5.37;100.00;95458.16;5001921;28;20398;-85
2024/02/26 04:49:15;;;;;;;2.90;2.28;;;;;;;5.36;100.00;95448.69;5000588;28;20410;-85
2024/02/26 04:51:41;;;;;;;3.70;2.53;;;;;;;5.35;100.00;95457.63;5001757;28;20900;-85
2024/02/26 04:54:08;;;;;;;5.35;2.90;;;;;;;5.26;100.00;95455.81;5003837;28;20886;-84
2024/02/26 04:56:35;;;;;;;2.72;2.20;;;;;;;5.26;100.00;95458.44;5000886;28;20407;-85
2024/02/26 04:59:01;;;;;;;3.57;2.23;;;;;;;5.27;100.00;95465.22;5002302;28;20478;-85
2024/02/26 05:01:27;;;;;;;5.15;2.70;;;;;;;5.30;100.00;95454.22;5006433;28;20417;-86
2024/02/26 05:03:54;;;;;;;3.73;2.57;;;;;;;5.25;100.00;95452.41;5014264;28;20459;-86
2024/02/26 05:06:20;;;;;;;3.55;2.40;;;;;;;5.23;100.00;95451.09;5021625;28;20453;-86
2024/02/26 05:08:46;;;;;;;3.73;2.30;;;;;;;5.23;100.00;95449.25;5012488;28;20761;-83
2024/02/26 05:11:12;;;;;;;3.55;2.22;;;;;;;5.23;100.00;95458.94;5011942;28;20411;-85
2024/02/26 05:13:39;;;;;;;3.60;2.40;;;;;;;5.21;100.00;95461.03;5012798;28;20451;-85
2024/02/26 05:16:06;;;;;;;2.88;2.50;;;;;;;5.26;100.00;95461.81;5018890;28;20446;-84
2024/02/26 05:18:32;;;;;;;3.95;2.30;;;;;;;5.26;100.00;95466.31;5019423;28;20771;-83
2024/02/26 05:20:58;;;;;;;5.63;2.40;;;;;;;5.27;100.00;95466.00;5018128;28;20404;-82
2024/02/26 05:23:24;;;;;;;4.10;2.40;;;;;;;5.42;100.00;95462.59;5002883;28;20441;-83
2024/02/26 05:25:50;;;;;;;3.17;2.30;;;;;;;5.36;100.00;95461.81;4997541;28;20860;-84
2024/02/26 05:28:16;;;;;;;3.80;2.67;;;;;;;5.34;100.00;95455.25;4999400;28;20418;-85
2024/02/26 05:30:44;;;;;;;4.95;3.05;;;;;;;5.31;100.00;95458.41;5014100;28;20396;-86
2024/02/26 05:33:10;;;;;;;4.83;2.63;;;;;;;5.36;100.00;95477.56;5006324;28;20410;-84
2024/02/26 05:35:36;;;;;;;4.63;2.60;;;;;;;5.35;100.00;95481.22;5009494;28;20433;-83
2024/02/26 05:38:03;;;;;;;3.90;2.70;;;;;;;5.33;100.00;95500.94;5016830;28;20424;-81
2024/02/26 05:40:29;;;;;;;5.70;2.50;;;;;;;5.26;100.00;95514.28;5015371;28;20412;-84
2024/02/26 05:42:56;;;;;;;5.37;2.40;;;;;;;5.23;100.00;95512.19;5000547;28;20447;-81
2024/02/26 05:45:22;;;;;;;4.18;2.50;;;;;;;5.15;100.00;95515.34;4999934;28;20402;-84
2024/02/26 05:47:49;;;;;;;4.67;2.60;;;;;;;5.03;100.00;95525.31;5000368;28;20499;-84
2024/02/26 05:50:16;;;;;;;3.35;2.58;;;;;;;4.96;100.00;95520.31;5000828;28;20468;-82
2024/02/26 05:52:43;;;;;;;5.95;2.90;;;;;;;4.89;100.00;95522.41;5002251;28;20410;-81
2024/02/26 05:55:09;;;;;;;4.20;2.90;;;;;;;4.87;100.00;95515.84;5007593;28;20407;-81
2024/02/26 05:57:35;;;;;;;4.53;2.78;;;;;;;4.80;100.00;95528.44;5001167;28;20485;-83
2024/02/26 06:00:05;;;;;;;6.28;3.20;;;;;;;4.73;100.00;95536.53;5004352;28;20418;-83
2024/02/26 06:02:31;;;;;;;5.47;3.50;;;;;;;4.69;100.00;95527.59;5004049;28;20771;-83
2024/02/26 06:04:59;;;;;;;4.07;3.00;;;;;;;4.62;100.00;95527.84;5004215;28;20436;-82
2024/02/26 06:07:25;;;;;;;6.07;3.30;;;;;;;4.52;100.00;95527.03;5020936;28;20409;-83
2024/02/26 06:09:52;;;;;;;4.90;3.30;;;;;;;4.42;100.00;95530.44;5022763;28;20431;-85
2024/02/26 06:12:18;;;;;;;4.82;3.10;;;;;;;4.35;100.00;95535.13;5024803;28;20393;-85
2024/02/26 06:14:44;;;;;;;5.20;3.20;;;;;;;4.31;100.00;95538.50;5023699;28;20400;-84
2024/02/26 06:17:10;;;;;;;6.00;3.50;;;;;;;4.29;100.00;95541.38;5022792;28;20415;-80
2024/02/26 06:19:36;;;;;;;5.30;3.28;;;;;;;4.28;100.00;95543.19;5027053;28;20401;-81
2024/02/26 06:22:04;;;;;;;3.90;3.10;;;;;;;4.26;100.00;95547.91;5024939;28;20411;-85
2024/02/26 06:24:30;;;;;;;5.30;3.33;;;;;;;4.31;100.00;95543.72;5001874;28;20803;-83
2024/02/26 06:26:56;;;;;;;6.07;3.28;;;;;;;4.29;100.00;95543.97;5000888;28;20410;-84
2024/02/26 06:29:22;;;;;;;5.57;2.95;;;;;;;4.26;100.00;95537.44;5001985;28;20407;-83
2024/02/26 06:31:50;;;;;;;3.33;2.63;;;;;;;4.25;100.00;95548.16;5002653;28;20409;-83
2024/02/26 06:34:16;;;;;;;2.88;2.40;;;;;;;4.22;100.00;95557.31;5003072;28;20405;-82
2024/02/26 06:36:42;;;;;;;3.17;2.33;;;;;;;4.21;100.00;95547.13;5001800;28;20780;-85
2024/02/26 06:39:10;;;;;;;2.60;2.30;;;;;;;4.21;100.00;95553.13;5002807;28;20574;-84
2024/02/26 06:41:39;;;;;;;3.15;2.70;;;;;;;4.20;100.00;95554.19;5004614;28;20412;-81
2024/02/26 06:44:05;;;;;;;3.22;2.47;;;;;;;4.16;100.00;95557.56;5013256;28;20462;-84
2024/02/26 06:46:31;;;;;;;2.53;2.30;;;;;;;4.14;100.00;95567.47;5020582;28;20419;-87
2024/02/26 06:48:58;;;;;;;4.50;3.05;;;;;;;4.17;100.00;95562.53;5016595;28;20398;-80
2024/02/26 06:51:24;;;;;;;4.13;2.90;;;;;;;4.17;100.00;95564.38;5016862;28;20402;-80
2024/02/26 06:53:50;;;;;;;3.20;2.77;;;;;;;4.21;100.00;95579.31;5019617;28;20440;-85
2024/02/26 06:56:17;;;;;;;5.57;3.25;;;;;;;4.24;100.00;95583.25;5035106;28;20416;-83
2024/02/26 06:58:44;;;;;;;4.00;2.90;;;;;;;4.27;100.00;95586.16;5039075;28;20412;-83
2024/02/26 07:01:12;;;;;;;4.63;2.90;;;;;;;4.29;100.00;95581.44;5039891;28;20412;-87
2024/02/26 07:03:39;;;;;;;3.40;2.70;;;;;;;4.35;100.00;95592.75;5036596;28;20461;-82
2024/02/26 07:06:06;;;;;;;3.95;2.80;;;;;;;4.40;100.00;95592.75;5019887;28;20474;-84
2024/02/26 07:08:32;;;;;;;3.72;2.50;;;;;;;4.46;100.00;95602.22;5016341;28;20407;-87
2024/02/26 07:10:59;;;;;;;2.65;2.22;;;;;;;4.51;100.00;95601.47;5005148;28;20398;-85
2024/02/26 07:13:26;;;;;;;2.45;2.05;;;;;;;4.60;100.00;95616.41;5016641;28;20401;-85
2024/02/26 07:15:52;;;;;;;4.35;2.25;;;;;;;4.65;100.00;95613.03;5013954;28;20422;-86
2024/02/26 07:18:18;;;;;;;2.17;1.98;;;;;;;4.73;100.00;95619.63;5007492;28;20461;-86
2024/02/26 07:20:45;;;;;;;2.97;2.10;;;;;;;4.80;100.00;95620.16;5005821;28;20398;-87
2024/02/26 07:23:11;;;;;;;2.22;1.73;;;;;;;4.88;100.00;95617.03;4999886;28;20413;-84
2024/02/26 07:25:37;;;;;;;2.23;1.73;;;;;;;4.94;100.00;95616.81;5004594;28;20403;-86
2024/02/26 07:28:04;;;;;;;2.17;1.90;;;;;;;5.00;100.00;95620.22;5010677;28;20404;-86
2024/02/26 07:30:31;;;;;;;1.95;1.85;;;;;;;5.05;100.00;95620.22;5026078;28;20844;-87
2024/02/26 07:32:57;;;;;;;3.78;2.40;;;;;;;5.08;100.00;95617.09;5028197;28;20393;-85
2024/02/26 07:35:24;;;;;;;2.28;2.08;;;;;;;5.11;100.00;95610.56;5027536;28;20405;-86
2024/02/26 07:37:50;;;;;;;2.70;2.15;;;;;;;5.15;100.00;95625.50;5015413;28;20430;-86
2024/02/26 07:40:16;;;;;;;3.40;2.70;;;;;;;5.19;100.00;95625.78;5009033;28;20453;-86
2024/02/26 07:42:42;;;;;;;7.18;3.80;;;;;;;5.22;100.00;95633.09;5007945;28;20402;-87
2024/02/26 07:45:09;;;;;;;6.85;3.33;;;;;;;5.24;100.00;95641.50;5004873;28;20403;-87
2024/02/26 07:47:40;;;;;;;3.63;2.73;;;;;;;5.30;100.00;95630.78;5010379;28;20461;-86
2024/02/26 07:50:07;;;;;;;3.70;2.20;;;;;;;5.38;100.00;95632.88;5008283;28;20429;-86
2024/02/26 07:52:33;;;;;;;3.67;2.53;;;;;;;5.45;100.00;95638.66;5009680;28;20422;-87
2024/02/26 07:55:00;;;;;;;2.37;2.00;;;;;;;5.54;100.00;95635.53;5004948;28;20413;-87
2024/02/26 07:57:26;;;;;;;3.00;2.40;;;;;;;5.59;100.00;95636.31;5004299;28;20413;-87
2024/02/26 07:59:52;;;;;;;3.93;2.30;;;;;;;5.65;100.00;95635.25;5003615;28;20426;-87
2024/02/26 08:02:18;;;;;;;4.38;2.28;;;;;;;5.71;100.00;95639.44;5011821;28;20409;-87
2024/02/26 08:04:46;;;;;;;2.75;2.08;;;;;;;5.79;100.00;95638.13;5016066;28;20390;-86
2024/02/26 08:07:12;;;;;;;2.53;2.27;;;;;;;5.86;100.00;95637.88;5015126;28;20390;-87
2024/02/26 08:09:38;;;;;;;3.10;2.20;;;;;;;5.92;100.00;95629.78;5012179;28;20419;-86
2024/02/26 08:12:05;;;;;;;2.40;2.20;;;;;;;5.99;100.00;95627.66;5017344;28;20393;-86
2024/02/26 08:14:32;;;;;;;2.30;2.10;;;;;;;6.06;100.00;95617.66;5002883;28;20411;-86
2024/02/26 08:16:58;;;;;;;2.60;2.20;;;;;;;6.11;100.00;95617.66;5002953;28;20490;-86
2024/02/26 08:19:24;;;;;;;3.97;2.10;;;;;;;6.16;100.00;95612.38;5003097;28;20427;-86
2024/02/26 08:21:52;;;;;;;2.65;1.90;;;;;;;6.22;100.00;95613.19;5005753;28;20466;-86
2024/02/26 08:24:18;;;;;;;2.25;2.00;;;;;;;6.28;100.00;95622.63;5006998;28;20902;-86
2024/02/26 08:26:45;;;;;;;2.33;1.92;;;;;;;6.37;100.00;95630.75;5003070;28;20466;-86
2024/02/26 08:29:11;;;;;;;2.00;1.80;;;;;;;6.44;100.00;95624.16;5022374;28;20400;-84
2024/02/26 08:31:37;;;;;;;3.03;2.13;;;;;;;6.56;100.00;95616.75;5021352;28;20647;-85
2024/02/26 08:34:03;;;;;;;4.25;2.60;;;;;;;6.60;100.00;95620.41;5008209;28;20982;-82
2024/02/26 08:36:30;;;;;;;4.30;2.60;;;;;;;6.65;100.00;95629.34;5011535;28;20472;-84
2024/02/26 08:38:57;;;;;;;4.25;2.80;;;;;;;6.74;100.00;95630.34;5021755;28;20427;-83
2024/02/26 08:41:23;;;;;;;5.25;3.17;;;;;;;6.85;100.00;95637.13;5013960;28;20406;-83
2024/02/26 08:43:49;;;;;;;5.20;2.80;;;;;;;6.89;100.00;95636.34;5013862;28;21045;-86
2024/02/26 08:46:16;;;;;;;3.10;2.40;;;;;;;6.93;100.00;95633.94;5021571;28;20408;-86
2024/02/26 08:48:42;;;;;;;2.83;2.20;;;;;;;6.95;100.00;95640.50;5017432;28;20405;-84
2024/02/26 08:51:09;;;;;;;2.80;2.20;;;;;;;6.94;100.00;95638.16;5018205;28;20482;-85
2024/02/26 08:53:35;;;;;;;2.55;1.92;;;;;;;7.00;100.00;95637.06;5014000;28;20411;-86
2024/02/26 08:56:03;;;;;;;1.77;1.67;;;;;;;7.04;100.00;95646.00;5016223;28;21108;-86
2024/02/26 08:58:29;;;;;;;2.00;1.80;;;;;;;7.10;100.00;95650.16;5007394;28;20456;-85
2024/02/26 09:00:56;;;;;;;2.00;1.70;;;;;;;7.10;100.00;95642.28;5011627;28;20397;-86
2024/02/26 09:03:22;;;;;;;2.80;2.07;;;;;;;7.07;100.00;95637.53;5011678;28;20514;-85
2024/02/26 09:05:48;;;;;;;3.83;2.20;;;;;;;6.97;100.00;95642.88;5004359;28;20398;-86
2024/02/26 09:08:15;;;;;;;2.78;2.35;;;;;;;6.88;100.00;95637.38;5006943;28;20422;-86
2024/02/26 09:10:41;;;;;;;4.00;2.45;;;;;;;6.85;100.00;95637.91;5011887;28;20482;-85
2024/02/26 09:13:08;;;;;;;2.47;2.00;;;;;;;6.92;100.00;95640.25;5021064;28;20413;-86
2024/02/26 09:15:35;;;;;;;2.65;2.28;;;;;;;6.98;100.00;95634.72;5018925;28;20420;-85
2024/02/26 09:18:01;;;;;;;2.72;2.00;;;;;;;7.03;100.00;95639.16;5003328;28;20476;-84
2024/02/26 09:20:27;;;;;;;2.47;1.80;;;;;;;7.12;100.00;95639.38;5004388;28;20416;-84
2024/02/26 09:22:53;;;;;;;2.67;2.15;;;;;;;7.16;100.00;95638.56;5008362;28;20405;-85
2024/02/26 09:25:20;;;;;;;2.30;1.67;;;;;;;7.21;100.00;95635.91;5007896;28;20435;-84
2024/02/26 09:27:46;;;;;;;2.08;1.88;;;;;;;7.25;100.00;95644.03;5003283;28;20441;-84
2024/02/26 09:30:14;;;;;;;2.00;1.80;;;;;;;7.28;100.00;95633.78;5008900;28;20739;-84
2024/02/26 09:32:41;;;;;;;1.50;1.40;;;;;;;7.35;100.00;95644.78;5012236;28;20432;-86
2024/02/26 09:35:07;;;;;;;2.40;1.70;;;;;;;7.42;100.00;95652.38;5009916;28;20449;-84
2024/02/26 09:37:34;;;;;;;1.60;1.40;;;;;;;7.48;100.00;95648.63;5009402;28;20393;-85
2024/02/26 09:40:00;;;;;;;2.80;1.60;;;;;;;7.55;100.00;95648.31;5014243;28;20511;-85
2024/02/26 09:42:28;;;;;;;2.53;1.60;;;;;;;7.63;100.00;95648.53;5025589;28;20393;-83
2024/02/26 09:44:55;;;;;;;2.03;1.50;;;;;;;7.74;100.00;95647.38;5033019;28;20410;-84
2024/02/26 09:47:27;;;;;;;2.15;1.75;;;;;;;7.90;100.00;95642.00;5006121;28;20449;-83
2024/02/26 09:49:56;;;;;;;2.08;1.70;;;;;;;8.09;100.00;95651.59;5016180;28;20404;-83
2024/02/26 09:52:23;;;;;;;2.20;1.90;;;;;;;8.32;100.00;95652.72;5009267;28;20402;-87
2024/02/26 09:54:49;;;;;;;2.70;2.00;;;;;;;8.57;100.00;95648.25;4999206;28;20904;-82
2024/02/26 09:57:17;;;;;;;2.35;1.70;;;;;;;8.82;100.00;95655.88;5015324;28;20427;-84
2024/02/26 09:59:44;;;;;;;2.03;1.83;;;;;;;9.18;100.00;95658.84;5014569;28;20423;-84
2024/02/26 10:02:12;;;;;;;3.20;1.90;;;;;;;9.67;100.00;95669.03;4998662;28;20950;-84
2024/02/26 10:04:41;;;;;;;2.47;1.77;;;;;;;10.25;100.00;95663.38;5015573;28;20851;-82
2024/02/26 10:07:11;;;;;;;2.93;1.90;;;;;;;10.74;100.00;95655.63;5004120;28;20412;-83
2024/02/26 10:09:38;;;;;;;3.35;2.22;;;;;;;11.09;100.00;95656.75;5005196;28;20455;-84
2024/02/26 10:12:04;;;;;;;3.30;2.03;;;;;;;11.50;100.00;95650.63;5014150;28;20676;-84
2024/02/26 10:14:31;;;;;;;5.20;2.90;;;;;;;11.38;100.00;95642.38;5007562;28;20419;-84
2024/02/26 10:16:58;;;;;;;4.88;2.38;;;;;;;11.41;100.00;95645.25;5017730;28;20405;-82
2024/02/26 10:19:28;;;;;;;2.92;2.03;;;;;;;11.87;100.00;95644.22;5013833;28;20540;-81
2024/02/26 10:21:57;;;;;;;3.73;2.10;;;;;;;12.43;100.00;95650.78;5004668;28;20399;-84
2024/02/26 10:24:23;;;;;;;4.43;2.30;;;;;;;12.74;100.00;95657.66;5008975;28;20760;-83
2024/02/26 10:26:50;;;;;;;3.58;2.40;;;;;;;12.93;100.00;95649.44;5011458;28;20394;-83
2024/02/26 10:29:17;;;;;;;3.65;2.30;;;;;;;13.22;100.00;95643.63;5006809;28;20405;-84
2024/02/26 10:31:44;;;;;;;4.60;2.50;;;;;;;13.39;100.00;95645.50;5007416;28;20406;-82
2024/02/26 10:34:10;;;;;;;3.47;2.23;;;;;;;13.66;100.00;95647.88;5004994;28;20411;-81
2024/02/26 10:36:37;;;;;;;3.30;1.90;;;;;;;13.86;100.00;95649.13;5016689;28;20403;-83
2024/02/26 10:39:05;;;;;;;5.97;2.42;;;;;;;14.04;100.00;95648.03;5013052;28;20419;-82
2024/02/26 10:41:33;;;;;;;3.95;2.10;;;;;;;14.07;100.00;95647.38;5015501;28;20424;-82
2024/02/26 10:44:00;;;;;;;3.17;2.00;;;;;;;14.06;100.00;95640.50;5011025;28;20408;-81
2024/02/26 10:46:26;;;;;;;5.63;2.22;;;;;;;13.60;100.00;95648.38;5008900;28;20403;-81
2024/02/26 10:48:53;;;;;;;5.65;2.47;;;;;;;13.57;100.00;95650.53;5006232;28;20416;-84
2024/02/26 10:51:25;;;;;;;4.53;2.30;;;;;;;13.62;100.00;95659.44;5014164;28;20400;-83
2024/02/26 10:53:56;;;;;;;5.25;3.05;;;;;;;13.55;100.00;95663.34;5006766;28;20485;-80
2024/02/26 10:56:27;;;;;;;5.40;2.42;;;;;;;13.66;100.00;95658.53;5007007;28;20449;-83
2024/02/26 10:58:54;;;;;;;5.65;2.53;;;;;;;13.95;100.00;95661.34;5009659;28;20422;-84
2024/02/26 11:01:22;;;;;;;3.17;2.20;;;;;;;13.94;100.00;95664.31;5008343;28;20499;-85
2024/02/26 11:03:50;;;;;;;3.15;2.15;;;;;;;13.99;100.00;95652.72;5015010;28;20430;-85
2024/02/26 11:06:17;;;;;;;3.45;2.25;;;;;;;14.12;100.00;95659.75;5003031;28;20405;-85
2024/02/26 11:08:44;;;;;;;3.72;2.00;;;;;;;14.40;100.00;95653.00;5009028;28;20763;-85
2024/02/26 11:11:15;;;;;;;3.97;2.05;;;;;;;14.88;100.00;95662.56;5003231;28;20962;-81
2024/02/26 11:13:47;;;;;;;4.38;2.25;;;;;;;15.32;100.00;95662.03;5009266;28;20497;-84
2024/02/26 11:16:14;;;;;;;4.30;2.38;;;;;;;15.77;100.00;95664.09;5001513;28;20406;-84
2024/02/26 11:18:41;;;;;;;4.20;2.30;;;;;;;16.23;100.00;95658.53;5004141;28;20406;-85
2024/02/26 11:21:08;;;;;;;4.30;2.15;;;;;;;16.62;100.00;95664.41;5002529;28;20398;-87
2024/02/26 11:23:40;;;;;;;2.70;1.70;;;;;;;16.60;100.00;95654.09;5019846;28;20870;-86
2024/02/26 11:26:08;;;;;;;2.75;1.90;;;;;;;16.45;100.00;95659.25;5023659;28;20408;-86
2024/02/26 11:28:35;;;;;;;2.37;1.60;;;;;;;16.30;100.00;95657.97;5029146;28;20467;-87